Time;durP1;ratioP1;P1;durP2;ratioP2;P2;SDS_P1;SDS_P2;PMS_P1;PMS_P2;Temp;Humidity;BMP_temperature;BMP_pressure;BME280_temperature;BME280_humidity;BME280_pressure;Samples;Min_cycle;Max_cycle;Signal;HPM_P1;HPM_P2
2023/03/13 00:01:40;;;;;;;20.23;3.58;;;;;;;9.21;100.00;99694.78;5016184;28;20052;-91
2023/03/13 00:04:08;;;;;;;22.20;3.88;;;;;;;9.24;100.00;99707.84;5031904;28;20053;-90
2023/03/13 00:06:39;;;;;;;18.48;3.38;;;;;;;9.27;100.00;99694.50;5015427;28;20057;-92
2023/03/13 00:09:09;;;;;;;16.00;3.20;;;;;;;9.33;100.00;99696.78;5017621;28;20081;-91
2023/03/13 00:11:46;;;;;;;17.55;3.42;;;;;;;9.03;100.00;99645.56;4997653;28;20052;-91
2023/03/13 00:14:15;;;;;;;19.05;3.47;;;;;;;9.37;100.00;99695.69;5019221;28;20042;-91
2023/03/13 00:16:42;;;;;;;16.33;4.07;;;;;;;9.24;100.00;99664.72;5020188;28;20037;-91
2023/03/13 00:19:12;;;;;;;17.55;3.72;;;;;;;9.45;100.00;99685.56;5024212;28;20045;-90
2023/03/13 00:21:40;;;;;;;17.33;3.42;;;;;;;9.45;100.00;99682.91;5023273;28;20054;-90
2023/03/13 00:24:10;;;;;;;22.20;3.85;;;;;;;9.15;100.00;99623.78;5025656;28;20088;-90
2023/03/13 00:26:53;;;;;;;15.73;3.55;;;;;;;9.09;100.00;99610.94;5047973;28;20037;-91
2023/03/13 00:29:23;;;;;;;20.98;3.58;;;;;;;9.40;100.00;99657.69;5032885;28;20076;-90
2023/03/13 00:31:54;;;;;;;16.23;3.33;;;;;;;9.37;100.00;99656.06;5031616;28;20049;-90
2023/03/13 00:34:26;;;;;;;16.95;3.42;;;;;;;9.45;100.00;99671.50;5057072;28;20053;-88
2023/03/13 00:36:54;;;;;;;15.10;3.03;;;;;;;8.92;100.00;99584.56;5031148;28;20049;-89
2023/03/13 00:39:24;;;;;;;16.85;3.38;;;;;;;9.30;100.00;99654.66;5028134;28;20060;-90
2023/03/13 00:42:14;;;;;;;16.75;3.47;;;;;;;9.34;100.00;99660.66;5051560;28;20106;-90
2023/03/13 00:44:45;;;;;;;25.35;3.80;;;;;;;9.33;100.00;99656.31;5039987;28;20525;-90
2023/03/13 00:47:40;;;;;;;14.57;3.78;;;;;;;9.33;100.00;99648.38;5016182;28;20282;-91
2023/03/13 00:50:07;;;;;;;12.55;3.08;;;;;;;9.26;100.00;99632.03;5015129;28;20371;-92
2023/03/13 00:52:38;;;;;;;13.43;2.90;;;;;;;9.24;100.00;99628.59;5023643;28;20083;-90
2023/03/13 00:55:34;;;;;;;17.58;3.63;;;;;;;9.28;100.00;99632.78;5043517;28;20107;-91
2023/03/13 00:58:04;;;;;;;18.08;3.67;;;;;;;9.14;100.00;99606.22;5040969;28;20072;-90
2023/03/13 01:00:31;;;;;;;14.75;3.67;;;;;;;9.30;100.00;99616.81;5034467;28;20042;-91
2023/03/13 01:02:59;;;;;;;14.35;3.40;;;;;;;9.20;100.00;99594.50;5032616;28;20056;-92
2023/03/13 01:05:27;;;;;;;17.85;2.80;;;;;;;9.26;100.00;99610.03;5026059;28;20400;-92
2023/03/13 01:07:53;;;;;;;17.67;3.45;;;;;;;9.21;100.00;99589.13;5039598;28;20061;-93
2023/03/13 01:10:25;;;;;;;12.75;2.92;;;;;;;9.14;100.00;99579.81;5012766;28;20057;-91
2023/03/13 01:12:52;;;;;;;16.05;3.45;;;;;;;9.29;100.00;99602.75;5017299;28;20041;-91
2023/03/13 01:15:19;;;;;;;15.02;3.08;;;;;;;9.30;100.00;99599.19;5018359;28;20048;-91
2023/03/13 01:17:50;;;;;;;11.60;3.28;;;;;;;9.15;100.00;99565.69;5006456;28;20052;-92
2023/03/13 01:20:17;;;;;;;13.40;3.13;;;;;;;9.36;100.00;99588.28;5014752;28;20046;-90
2023/03/13 01:22:47;;;;;;;13.57;3.53;;;;;;;9.42;100.00;99592.41;5024524;28;20108;-91
2023/03/13 01:25:16;;;;;;;19.05;4.05;;;;;;;9.47;100.00;99599.13;5037641;28;20484;-92
2023/03/13 01:27:43;;;;;;;16.30;3.42;;;;;;;9.43;100.00;99583.53;5021018;28;20045;-92
2023/03/13 01:30:10;;;;;;;14.60;2.90;;;;;;;9.25;100.00;99545.78;5013428;28;20041;-89
2023/03/13 01:32:39;;;;;;;12.43;2.67;;;;;;;9.47;100.00;99570.06;5024913;28;20049;-89
2023/03/13 01:35:07;;;;;;;10.93;2.72;;;;;;;9.54;100.00;99577.66;5027981;28;20038;-90
2023/03/13 01:37:35;;;;;;;11.95;3.00;;;;;;;9.58;100.00;99574.75;5015206;28;20049;-90
2023/03/13 01:40:06;;;;;;;17.33;3.35;;;;;;;9.28;100.00;99502.50;5025997;28;20077;-90
2023/03/13 01:42:56;;;;;;;13.80;3.05;;;;;;;9.69;100.00;99556.50;5046594;28;20056;-89
2023/03/13 01:45:53;;;;;;;13.30;3.33;;;;;;;9.67;100.00;99557.53;5025408;28;20041;-90
2023/03/13 01:49:02;;;;;;;15.15;3.40;;;;;;;9.56;100.00;99523.78;5045429;28;20057;-91
2023/03/13 01:51:36;;;;;;;14.30;2.95;;;;;;;9.72;100.00;99542.25;5030438;28;20041;-91
2023/03/13 01:54:47;;;;;;;14.02;3.00;;;;;;;9.71;100.00;99528.19;5012235;28;20158;-91
2023/03/13 01:57:34;;;;;;;13.40;2.67;;;;;;;9.77;100.00;99521.69;5005953;28;20458;-91
2023/03/13 02:00:09;;;;;;;17.98;3.45;;;;;;;9.79;100.00;99525.09;4990224;28;20555;-92
2023/03/13 02:02:41;;;;;;;12.75;3.13;;;;;;;9.79;100.00;99503.94;5025177;28;20515;-91
2023/03/13 02:05:11;;;;;;;18.90;3.00;;;;;;;9.85;100.00;99515.03;5037547;28;20058;-89
2023/03/13 02:07:54;;;;;;;10.82;2.92;;;;;;;9.72;100.00;99492.88;5030907;28;20041;-89
2023/03/13 02:10:23;;;;;;;10.18;2.42;;;;;;;9.69;100.00;99476.34;5036184;28;20514;-91
2023/03/13 02:12:51;;;;;;;13.18;2.83;;;;;;;9.90;100.00;99505.97;5045325;28;20057;-90
2023/03/13 02:15:21;;;;;;;9.32;2.80;;;;;;;9.91;100.00;99500.59;5023678;28;20067;-90
2023/03/13 02:17:49;;;;;;;8.30;2.35;;;;;;;9.96;100.00;99498.53;5013616;28;20050;-91
2023/03/13 02:20:22;;;;;;;14.73;2.63;;;;;;;9.97;100.00;99496.72;5043555;28;20520;-92
2023/03/13 02:22:55;;;;;;;11.35;2.30;;;;;;;9.95;100.00;99491.53;5003986;28;20042;-90
2023/03/13 02:25:32;;;;;;;9.02;3.42;;;;;;;9.93;100.00;99495.19;5010468;28;20042;-90
2023/03/13 02:28:17;;;;;;;12.00;2.67;;;;;;;9.83;100.00;99471.09;5015156;28;20037;-90
2023/03/13 02:30:51;;;;;;;11.32;2.47;;;;;;;9.93;100.00;99484.63;5013520;28;20049;-91
2023/03/13 02:33:20;;;;;;;17.40;3.28;;;;;;;9.84;100.00;99465.72;5017725;28;20495;-91
2023/03/13 02:35:48;;;;;;;10.30;2.75;;;;;;;9.80;100.00;99453.63;5025778;28;20120;-91
2023/03/13 02:38:26;;;;;;;10.93;2.55;;;;;;;9.68;100.00;99432.34;5000313;28;20093;-91
2023/03/13 02:41:18;;;;;;;15.55;2.95;;;;;;;9.90;100.00;99451.31;5022864;28;20037;-92
2023/03/13 02:43:46;;;;;;;10.85;2.53;;;;;;;9.82;100.00;99437.66;5035946;28;20050;-90
2023/03/13 02:46:19;;;;;;;11.25;2.63;;;;;;;9.74;100.00;99438.13;5029341;28;20044;-91
2023/03/13 02:48:52;;;;;;;11.82;2.85;;;;;;;9.92;100.00;99444.09;5025950;28;20044;-92
2023/03/13 02:51:40;;;;;;;10.82;2.75;;;;;;;9.88;100.00;99439.97;5018527;28;20046;-90
2023/03/13 02:54:13;;;;;;;14.88;3.10;;;;;;;9.89;100.00;99446.94;5017943;28;20118;-91
2023/03/13 02:56:44;;;;;;;16.17;2.53;;;;;;;9.75;100.00;99409.91;5019806;28;20045;-90
2023/03/13 02:59:14;;;;;;;12.85;2.70;;;;;;;9.70;100.00;99396.09;5026155;28;20077;-91
2023/03/13 03:01:40;;;;;;;11.88;3.03;;;;;;;9.87;100.00;99417.09;5019877;28;20042;-92
2023/03/13 03:04:14;;;;;;;12.88;2.83;;;;;;;9.88;100.00;99407.38;5029900;28;20108;-89
2023/03/13 03:06:41;;;;;;;13.68;2.70;;;;;;;9.78;100.00;99396.47;5024556;28;20053;-90
2023/03/13 03:09:15;;;;;;;13.52;3.33;;;;;;;9.64;100.00;99368.22;5017446;28;20056;-88
2023/03/13 03:11:45;;;;;;;10.55;2.70;;;;;;;9.61;100.00;99372.81;5007077;28;20046;-89
2023/03/13 03:14:16;;;;;;;13.40;2.55;;;;;;;9.76;100.00;99390.41;5007291;28;20047;-89
2023/03/13 03:16:48;;;;;;;12.18;3.13;;;;;;;9.73;100.00;99380.91;5018373;28;20063;-91
2023/03/13 03:19:15;;;;;;;15.05;2.45;;;;;;;9.71;100.00;99366.94;5003288;28;20416;-92
2023/03/13 03:21:44;;;;;;;14.27;2.78;;;;;;;9.69;100.00;99375.88;5022344;28;20042;-89
2023/03/13 03:24:15;;;;;;;10.97;2.80;;;;;;;9.60;100.00;99361.41;5003431;28;20391;-89
2023/03/13 03:26:43;;;;;;;10.07;2.33;;;;;;;9.68;100.00;99380.31;5013236;28;20572;-88
2023/03/13 03:29:09;;;;;;;13.25;3.00;;;;;;;9.56;100.00;99375.78;5019491;28;20050;-90
2023/03/13 03:31:44;;;;;;;12.82;3.00;;;;;;;9.61;100.00;99383.41;5011524;28;20043;-89
2023/03/13 03:34:24;;;;;;;13.57;3.35;;;;;;;9.65;100.00;99390.22;5007645;28;20091;-90
2023/03/13 03:37:05;;;;;;;11.55;2.70;;;;;;;9.64;100.00;99396.44;5010383;28;20443;-89
2023/03/13 03:39:51;;;;;;;14.60;3.13;;;;;;;9.50;100.00;99390.19;5016240;28;20497;-90
2023/03/13 03:42:19;;;;;;;10.88;2.88;;;;;;;9.30;100.00;99371.97;5017350;28;20109;-91
2023/03/13 03:45:02;;;;;;;16.45;3.08;;;;;;;9.36;100.00;99394.56;5013747;28;20493;-91
2023/03/13 03:47:34;;;;;;;14.25;2.95;;;;;;;9.27;100.00;99385.41;5016489;28;20046;-92
2023/03/13 03:50:17;;;;;;;17.17;2.78;;;;;;;9.07;100.00;99365.41;5024138;28;20050;-89
2023/03/13 03:52:45;;;;;;;15.85;3.00;;;;;;;8.89;100.00;99349.75;5012659;28;20537;-86
2023/03/13 03:55:26;;;;;;;12.43;3.53;;;;;;;8.98;100.00;99376.47;5011107;28;20042;-86
2023/03/13 03:58:18;;;;;;;13.15;3.10;;;;;;;8.92;100.00;99368.91;5017180;28;20186;-85
2023/03/13 04:00:47;;;;;;;9.82;2.67;;;;;;;8.88;100.00;99379.72;5017587;28;20088;-85
2023/03/13 04:03:37;;;;;;;12.48;2.72;;;;;;;8.81;100.00;99362.53;5011736;28;20040;-85
2023/03/13 04:06:08;;;;;;;10.88;3.25;;;;;;;8.78;100.00;99359.13;4989970;28;20121;-85
2023/03/13 04:08:36;;;;;;;22.60;3.42;;;;;;;8.67;100.00;99350.94;5026253;28;20065;-86
2023/03/13 04:11:03;;;;;;;15.57;2.72;;;;;;;8.75;100.00;99361.09;5007209;28;20506;-86
2023/03/13 04:13:30;;;;;;;13.02;2.70;;;;;;;8.65;100.00;99344.06;5012623;28;20042;-88
2023/03/13 04:16:02;;;;;;;12.18;3.28;;;;;;;8.74;100.00;99359.38;5019044;28;20077;-88
2023/03/13 04:18:30;;;;;;;13.85;2.90;;;;;;;8.74;100.00;99367.28;5018991;28;20046;-88
2023/03/13 04:21:01;;;;;;;9.45;2.65;;;;;;;8.71;100.00;99357.75;5022610;28;20050;-87
2023/03/13 04:23:28;;;;;;;9.27;2.80;;;;;;;8.69;100.00;99354.34;5028588;28;20068;-88
2023/03/13 04:25:55;;;;;;;10.85;2.63;;;;;;;8.75;100.00;99354.03;5030640;28;20081;-87
2023/03/13 04:28:22;;;;;;;13.77;2.90;;;;;;;8.72;100.00;99350.69;5001337;28;20042;-87
2023/03/13 04:31:12;;;;;;;16.75;3.17;;;;;;;8.56;100.00;99315.53;4999798;28;20383;-86
2023/03/13 04:33:42;;;;;;;12.18;2.88;;;;;;;8.69;100.00;99337.66;5016368;28;20078;-87
2023/03/13 04:36:20;;;;;;;9.93;2.80;;;;;;;8.60;100.00;99325.84;5018348;28;20038;-87
2023/03/13 04:38:50;;;;;;;14.18;2.63;;;;;;;8.74;100.00;99335.63;5014588;28;20058;-87
2023/03/13 04:41:25;;;;;;;16.63;3.42;;;;;;;8.68;100.00;99320.97;5014844;28;20054;-87
2023/03/13 04:43:53;;;;;;;17.58;2.95;;;;;;;8.44;100.00;99273.09;5012193;28;20053;-86
2023/03/13 04:46:21;;;;;;;15.18;2.95;;;;;;;8.75;100.00;99343.47;5015466;28;20053;-87
2023/03/13 04:48:48;;;;;;;14.75;3.60;;;;;;;8.73;100.00;99321.56;5016875;28;20076;-87
2023/03/13 04:51:15;;;;;;;13.82;3.08;;;;;;;8.75;100.00;99327.63;5012139;28;20054;-87
2023/03/13 04:53:42;;;;;;;8.82;3.13;;;;;;;8.77;100.00;99317.84;5014831;28;20064;-88
2023/03/13 04:56:21;;;;;;;13.18;2.78;;;;;;;8.78;100.00;99301.06;5020597;28;20064;-87
2023/03/13 04:59:13;;;;;;;15.13;3.03;;;;;;;8.79;100.00;99310.69;5019660;28;20060;-89
2023/03/13 05:01:41;;;;;;;12.88;3.20;;;;;;;8.86;100.00;99319.09;5004737;28;20037;-89
2023/03/13 05:04:24;;;;;;;10.38;2.50;;;;;;;8.86;100.00;99310.31;5012864;28;20073;-86
2023/03/13 05:06:52;;;;;;;13.82;2.80;;;;;;;8.87;100.00;99301.47;5019940;28;20074;-88
2023/03/13 05:09:26;;;;;;;13.95;2.80;;;;;;;8.94;100.00;99310.75;5023432;28;20056;-86
2023/03/13 05:11:54;;;;;;;8.57;2.42;;;;;;;8.96;100.00;99306.22;5005749;28;20049;-87
2023/03/13 05:14:23;;;;;;;11.60;2.78;;;;;;;9.00;100.00;99294.53;5011178;28;20133;-86
2023/03/13 05:17:09;;;;;;;12.30;2.40;;;;;;;9.04;100.00;99293.41;5016588;28;20077;-91
2023/03/13 05:19:51;;;;;;;8.98;2.58;;;;;;;8.95;100.00;99278.13;5005003;28;20052;-90
2023/03/13 05:22:21;;;;;;;7.47;2.70;;;;;;;9.13;100.00;99279.66;5014706;28;20108;-89
2023/03/13 05:24:53;;;;;;;9.13;2.38;;;;;;;9.09;100.00;99259.69;5011228;28;20030;-89
2023/03/13 05:29:09;;;;;;;10.90;2.38;;;;;;;9.27;100.00;99257.75;5117788;27;21233;-91
2023/03/13 05:32:05;;;;;;;7.20;2.72;;;;;;;9.33;100.00;99254.72;5100946;28;20109;-93
2023/03/13 05:34:45;;;;;;;11.48;2.70;;;;;;;9.29;100.00;99239.97;5107906;28;20090;-92
2023/03/13 05:37:12;;;;;;;7.50;2.05;;;;;;;9.32;100.00;99237.16;5112110;28;20036;-94
2023/03/13 05:39:39;;;;;;;7.82;2.75;;;;;;;9.44;100.00;99237.28;5113621;28;20112;-88
2023/03/13 05:42:11;;;;;;;6.28;2.42;;;;;;;9.43;100.00;99238.25;5107851;28;20040;-90
2023/03/13 05:44:43;;;;;;;8.13;2.83;;;;;;;9.26;100.00;99211.13;5095300;28;20151;-90
2023/03/13 05:47:17;;;;;;;8.55;2.83;;;;;;;9.26;100.00;99216.41;5104626;28;20063;-89
2023/03/13 05:49:46;;;;;;;10.65;2.90;;;;;;;9.55;100.00;99278.06;5109100;28;20053;-92
2023/03/13 05:52:17;;;;;;;9.35;2.78;;;;;;;9.51;100.00;99274.75;5102691;28;20350;-90
2023/03/13 05:54:52;;;;;;;9.40;2.70;;;;;;;9.36;100.00;99243.97;5098043;28;20063;-90
2023/03/13 05:57:34;;;;;;;7.28;2.47;;;;;;;9.39;100.00;99242.00;5096482;28;20125;-93
2023/03/13 06:00:06;;;;;;;8.25;2.83;;;;;;;9.53;100.00;99243.81;5082062;28;20063;-88
2023/03/13 06:02:42;;;;;;;7.47;3.20;;;;;;;9.70;100.00;99246.25;5105446;28;20052;-89
2023/03/13 06:05:11;;;;;;;7.97;2.95;;;;;;;9.73;100.00;99229.38;5105540;28;20051;-90
2023/03/13 06:07:39;;;;;;;6.57;2.70;;;;;;;9.85;100.00;99218.03;5097987;28;20112;-89
2023/03/13 06:10:24;;;;;;;7.65;3.17;;;;;;;9.81;100.00;99200.66;5085696;28;20050;-90
2023/03/13 06:12:57;;;;;;;6.40;2.60;;;;;;;9.77;100.00;99210.56;5099806;28;20062;-91
2023/03/13 06:15:34;;;;;;;5.80;2.53;;;;;;;9.84;100.00;99222.47;5105074;28;20075;-92
2023/03/13 06:18:18;;;;;;;9.77;2.65;;;;;;;9.42;100.00;99161.69;5106131;28;20118;-89
2023/03/13 06:21:00;;;;;;;10.13;2.50;;;;;;;9.54;100.00;99165.38;5100899;28;20039;-89
2023/03/13 06:23:29;;;;;;;5.57;2.67;;;;;;;9.79;100.00;99213.09;5103781;28;20040;-90
2023/03/13 06:26:00;;;;;;;7.25;2.75;;;;;;;9.79;100.00;99221.03;5091184;28;20055;-88
2023/03/13 06:28:49;;;;;;;6.28;2.92;;;;;;;9.78;100.00;99216.69;5117255;27;20058;-89
2023/03/13 06:31:20;;;;;;;5.22;3.00;;;;;;;9.84;100.00;99224.25;5127278;27;20395;-88
2023/03/13 06:34:04;;;;;;;10.00;3.13;;;;;;;9.91;100.00;99216.81;5112756;27;20209;-87
2023/03/13 06:36:36;;;;;;;7.60;2.78;;;;;;;9.92;100.00;99221.13;5124664;27;20039;-89
2023/03/13 06:39:27;;;;;;;8.18;2.95;;;;;;;9.87;100.00;99218.78;5113263;28;20151;-88
2023/03/13 06:41:54;;;;;;;9.00;2.90;;;;;;;9.78;100.00;99209.63;5097057;28;20398;-89
2023/03/13 06:44:48;;;;;;;6.38;3.05;;;;;;;9.96;100.00;99217.34;5096661;28;20055;-90
2023/03/13 06:47:26;;;;;;;7.78;3.13;;;;;;;9.75;100.00;99185.19;5110147;28;20039;-89
2023/03/13 06:50:07;;;;;;;6.90;2.67;;;;;;;10.00;100.00;99226.78;5095783;28;20164;-90
2023/03/13 06:52:42;;;;;;;7.15;2.90;;;;;;;10.08;100.00;99225.34;5102994;28;20069;-91
2023/03/13 06:55:14;;;;;;;5.80;3.03;;;;;;;10.10;100.00;99204.94;5097179;28;20066;-88
2023/03/13 06:57:43;;;;;;;6.47;3.05;;;;;;;10.02;100.00;99183.44;5227439;22;20057;-89
2023/03/13 07:00:13;;;;;;;8.27;2.90;;;;;;;9.84;100.00;99129.91;5080966;28;20126;-89
2023/03/13 07:02:50;;;;;;;5.68;2.33;;;;;;;10.30;100.00;99192.25;5059148;28;20098;-90
2023/03/13 07:05:19;;;;;;;5.95;2.63;;;;;;;10.11;100.00;99166.09;5076364;28;20077;-88
2023/03/13 07:08:05;;;;;;;4.80;2.85;;;;;;;10.32;100.00;99201.81;5063723;28;20129;-90
2023/03/13 07:10:49;;;;;;;7.40;3.20;;;;;;;10.16;100.00;99174.59;5060315;28;20078;-89
2023/03/13 07:13:20;;;;;;;4.15;2.40;;;;;;;10.39;100.00;99194.34;5065224;28;20365;-91
2023/03/13 07:15:48;;;;;;;5.13;2.70;;;;;;;10.37;100.00;99183.00;5078487;28;20098;-89
2023/03/13 07:18:19;;;;;;;4.22;2.70;;;;;;;10.49;100.00;99188.31;5042571;28;20044;-89
2023/03/13 07:20:53;;;;;;;5.63;2.08;;;;;;;10.61;100.00;99204.34;5076644;28;20236;-90
2023/03/13 07:23:35;;;;;;;7.68;2.33;;;;;;;10.51;100.00;99175.00;5053503;28;20048;-90
2023/03/13 07:26:09;;;;;;;4.87;2.20;;;;;;;10.79;100.00;99211.06;5061136;28;20047;-89
2023/03/13 07:28:38;;;;;;;3.55;2.03;;;;;;;10.68;100.00;99181.81;5070852;28;20485;-89
2023/03/13 07:31:36;;;;;;;3.88;2.05;;;;;;;10.83;100.00;99201.97;5088560;28;20054;-92
2023/03/13 07:34:02;;;;;;;4.85;1.83;;;;;;;10.82;100.00;99195.84;5066256;28;20094;-88
2023/03/13 07:36:34;;;;;;;4.63;2.25;;;;;;;10.93;100.00;99208.34;5065508;28;20119;-88
2023/03/13 07:39:03;;;;;;;4.20;1.60;;;;;;;10.87;100.00;99192.84;5080452;28;20036;-90
2023/03/13 07:41:30;;;;;;;5.15;1.90;;;;;;;11.02;100.00;99207.72;5058445;28;20095;-88
2023/03/13 07:44:08;;;;;;;3.55;2.00;;;;;;;10.76;100.00;99159.16;5057708;28;20084;-88
2023/03/13 07:46:43;;;;;;;4.63;1.70;;;;;;;11.05;100.00;99202.22;5075816;28;20037;-92
2023/03/13 07:49:13;;;;;;;6.05;2.10;;;;;;;11.07;100.00;99186.22;5085121;28;20051;-91
2023/03/13 07:51:46;;;;;;;7.15;4.80;;;;;;;11.01;100.00;99184.84;5057707;28;20044;-90
2023/03/13 07:54:15;;;;;;;7.30;3.75;;;;;;;11.20;100.00;99222.38;5079441;28;20084;-90
2023/03/13 07:56:43;;;;;;;3.63;1.70;;;;;;;11.10;100.00;99204.56;5078004;28;20135;-90
2023/03/13 07:59:11;;;;;;;4.97;1.90;;;;;;;11.11;100.00;99200.97;5062034;28;20051;-89
2023/03/13 08:01:52;;;;;;;2.97;1.70;;;;;;;10.98;100.00;99173.59;5062041;28;20052;-88
2023/03/13 08:04:29;;;;;;;3.30;1.75;;;;;;;11.05;100.00;99190.75;5075344;28;20048;-89
2023/03/13 08:06:58;;;;;;;4.03;2.03;;;;;;;11.19;100.00;99209.22;5050499;28;20047;-87
2023/03/13 08:09:32;;;;;;;3.70;2.35;;;;;;;11.03;100.00;99182.06;5072083;28;20469;-87
2023/03/13 08:11:59;;;;;;;3.90;1.95;;;;;;;11.26;100.00;99199.91;5073627;28;20082;-87
2023/03/13 08:14:30;;;;;;;3.05;1.80;;;;;;;11.40;100.00;99202.44;5055233;28;20120;-88
2023/03/13 08:16:57;;;;;;;2.20;1.98;;;;;;;11.46;100.00;99202.03;5086297;28;20036;-87
2023/03/13 08:19:26;;;;;;;3.20;2.25;;;;;;;11.47;100.00;99176.38;5066281;28;20135;-89
2023/03/13 08:21:55;;;;;;;2.50;2.13;;;;;;;11.54;100.00;99186.44;5084224;28;20049;-89
2023/03/13 08:24:25;;;;;;;3.28;2.70;;;;;;;11.38;100.00;99164.59;5060171;28;20036;-88
2023/03/13 08:26:53;;;;;;;3.03;2.40;;;;;;;11.67;100.00;99185.56;5061079;28;20053;-88
2023/03/13 08:29:43;;;;;;;2.47;2.28;;;;;;;11.86;100.00;99178.03;5063885;28;20031;-88
2023/03/13 08:32:35;;;;;;;3.72;2.90;;;;;;;12.10;100.00;99189.56;5050376;28;20051;-87
2023/03/13 08:35:21;;;;;;;3.45;2.85;;;;;;;12.21;100.00;99197.56;5079716;28;20377;-89
2023/03/13 08:37:49;;;;;;;3.70;2.65;;;;;;;12.20;100.00;99172.00;5066192;28;20090;-87
2023/03/13 08:40:19;;;;;;;4.07;2.80;;;;;;;12.33;100.00;99193.19;5059195;28;20036;-87
2023/03/13 08:42:46;;;;;;;3.90;3.10;;;;;;;12.44;100.00;99195.88;5062886;28;20071;-88
2023/03/13 08:45:16;;;;;;;4.25;2.80;;;;;;;12.39;100.00;99187.44;5069830;28;20047;-87
2023/03/13 08:47:51;;;;;;;3.78;2.80;;;;;;;12.57;100.00;99198.50;5090084;28;20086;-88
2023/03/13 08:50:23;;;;;;;4.82;3.20;;;;;;;12.61;100.00;99199.94;5072271;28;20048;-89
2023/03/13 08:52:50;;;;;;;3.90;2.70;;;;;;;12.60;100.00;99182.31;5072789;28;20071;-89
2023/03/13 08:55:21;;;;;;;4.32;3.30;;;;;;;12.61;100.00;99197.28;5073769;28;20037;-88
2023/03/13 08:57:54;;;;;;;5.05;3.10;;;;;;;12.55;100.00;99181.84;5079827;28;20070;-87
2023/03/13 09:00:26;;;;;;;5.03;3.22;;;;;;;12.59;100.00;99213.34;5090394;28;20055;-88
2023/03/13 09:02:59;;;;;;;3.90;2.75;;;;;;;12.23;100.00;99155.00;5095170;28;20073;-88
2023/03/13 09:05:40;;;;;;;3.10;2.80;;;;;;;12.45;100.00;99188.75;5092341;28;20067;-87
2023/03/13 09:08:21;;;;;;;4.47;3.20;;;;;;;12.61;100.00;99213.22;5069669;28;20045;-89
2023/03/13 09:10:56;;;;;;;3.55;2.92;;;;;;;12.65;100.00;99189.00;5075037;28;20147;-88
2023/03/13 09:13:28;;;;;;;4.57;2.95;;;;;;;12.51;100.00;99159.97;5071318;28;20067;-89
2023/03/13 09:16:06;;;;;;;3.83;2.92;;;;;;;12.70;100.00;99186.00;5047002;28;20055;-88
2023/03/13 09:18:42;;;;;;;3.28;2.88;;;;;;;12.77;100.00;99176.59;5044915;28;20051;-88
2023/03/13 09:21:22;;;;;;;3.60;3.30;;;;;;;12.80;100.00;99170.22;5073284;28;20036;-88
2023/03/13 09:23:51;;;;;;;4.05;2.58;;;;;;;12.72;100.00;99159.31;5062242;28;20075;-88
2023/03/13 09:26:21;;;;;;;3.95;2.90;;;;;;;12.84;100.00;99177.00;5044916;28;20457;-88
2023/03/13 09:28:50;;;;;;;3.65;2.97;;;;;;;12.83;100.00;99170.81;5062185;28;20048;-88
2023/03/13 09:31:28;;;;;;;4.40;2.70;;;;;;;12.85;100.00;99160.94;5076146;28;20041;-88
2023/03/13 09:33:56;;;;;;;3.30;3.00;;;;;;;12.68;100.00;99141.91;5065394;28;21053;-87
2023/03/13 09:36:25;;;;;;;5.47;3.85;;;;;;;12.91;100.00;99170.22;5082786;28;20139;-88
2023/03/13 09:38:57;;;;;;;2.67;2.47;;;;;;;12.75;100.00;99143.97;5066937;28;20108;-87
2023/03/13 09:41:30;;;;;;;4.30;2.75;;;;;;;12.90;100.00;99161.44;5062187;28;20550;-88
2023/03/13 09:44:20;;;;;;;4.57;2.65;;;;;;;12.91;100.00;99168.41;5084420;28;20100;-88
2023/03/13 09:47:27;;;;;;;4.80;3.00;;;;;;;12.89;100.00;99149.13;5066527;28;20392;-88
2023/03/13 09:50:23;;;;;;;3.90;2.58;;;;;;;12.88;100.00;99139.47;5074948;28;20131;-87
2023/03/13 09:53:01;;;;;;;3.22;2.67;;;;;;;12.90;100.00;99139.34;5080793;28;20060;-89
2023/03/13 09:55:36;;;;;;;3.88;3.00;;;;;;;12.90;100.00;99144.66;5084340;28;20045;-86
2023/03/13 09:58:20;;;;;;;5.63;2.88;;;;;;;12.99;100.00;99151.91;5078060;28;20098;-88
2023/03/13 10:00:53;;;;;;;3.42;2.58;;;;;;;12.89;100.00;99138.50;5058229;28;20071;-88
2023/03/13 10:03:29;;;;;;;3.35;2.80;;;;;;;12.75;100.00;99125.38;5069614;28;20041;-88
2023/03/13 10:06:03;;;;;;;3.97;3.05;;;;;;;12.93;100.00;99163.84;5079839;28;20109;-87
2023/03/13 10:08:32;;;;;;;5.35;3.13;;;;;;;12.74;100.00;99123.72;5056016;28;20055;-88
2023/03/13 10:11:03;;;;;;;6.47;3.47;;;;;;;13.00;100.00;99159.78;5055599;28;20044;-87
2023/03/13 10:13:45;;;;;;;4.45;2.80;;;;;;;12.93;100.00;99134.63;5058509;28;20072;-88
2023/03/13 10:16:27;;;;;;;6.10;3.20;;;;;;;13.10;100.00;99137.78;5075679;28;20135;-86
2023/03/13 10:18:57;;;;;;;3.80;3.15;;;;;;;13.23;100.00;99142.06;5059358;28;20059;-87
2023/03/13 10:21:34;;;;;;;5.25;3.50;;;;;;;13.32;100.00;99129.88;5059052;28;20040;-88
2023/03/13 10:24:04;;;;;;;5.60;3.63;;;;;;;13.23;100.00;99122.59;5077323;28;20053;-86
2023/03/13 10:26:35;;;;;;;3.92;3.10;;;;;;;13.53;100.00;99146.81;5063725;28;20041;-88
2023/03/13 10:29:26;;;;;;;5.05;3.45;;;;;;;13.56;100.00;99143.06;5073294;28;20041;-86
2023/03/13 10:32:09;;;;;;;6.78;3.80;;;;;;;13.51;100.00;99140.78;5062727;28;20051;-87
2023/03/13 10:35:00;;;;;;;4.93;3.67;;;;;;;13.32;100.00;99130.72;5078128;28;20055;-89
2023/03/13 10:38:02;;;;;;;8.60;4.07;;;;;;;13.46;100.00;99139.44;5073304;28;20040;-86
2023/03/13 10:40:41;;;;;;;7.18;4.10;;;;;;;13.36;100.00;99141.97;5061866;28;20056;-88
2023/03/13 10:43:19;;;;;;;6.93;3.75;;;;;;;13.37;100.00;99143.69;5062580;28;20045;-88
2023/03/13 10:46:02;;;;;;;5.88;3.70;;;;;;;13.42;100.00;99141.47;5057288;28;20044;-88
2023/03/13 10:48:37;;;;;;;6.95;3.60;;;;;;;13.43;100.00;99142.31;5043791;28;20052;-88
2023/03/13 10:51:22;;;;;;;5.93;3.30;;;;;;;13.47;100.00;99133.16;5069907;28;20051;-90
2023/03/13 10:54:34;;;;;;;6.85;3.47;;;;;;;13.59;100.00;99133.03;5079433;28;20071;-89
2023/03/13 10:57:16;;;;;;;3.58;2.78;;;;;;;13.63;100.00;99126.50;5067633;28;20040;-88
2023/03/13 10:59:53;;;;;;;3.22;2.45;;;;;;;13.72;100.00;99121.41;5074561;28;20040;-92
2023/03/13 11:02:52;;;;;;;6.07;3.00;;;;;;;13.81;100.00;99123.34;5066013;28;20113;-90
2023/03/13 11:05:53;;;;;;;5.30;3.10;;;;;;;13.87;100.00;99113.03;5079245;28;20106;-91
2023/03/13 11:08:45;;;;;;;5.88;2.88;;;;;;;13.94;100.00;99110.72;5061255;28;20401;-90
2023/03/13 11:11:29;;;;;;;4.50;2.90;;;;;;;13.95;100.00;99099.97;5061760;28;20109;-92
2023/03/13 11:14:13;;;;;;;6.13;3.08;;;;;;;14.00;100.00;99097.78;5065549;28;20055;-89
2023/03/13 11:16:48;;;;;;;7.45;3.17;;;;;;;13.84;100.00;99083.19;5066204;28;20060;-90
2023/03/13 11:19:37;;;;;;;6.28;3.40;;;;;;;13.87;100.00;99102.38;5081576;28;20052;-91
2023/03/13 11:22:12;;;;;;;5.45;3.30;;;;;;;13.82;100.00;99091.28;5086278;28;20040;-90
2023/03/13 11:24:48;;;;;;;7.15;3.35;;;;;;;13.78;100.00;99105.81;5066570;28;20044;-91
2023/03/13 11:27:20;;;;;;;6.05;3.22;;;;;;;13.74;100.00;99106.16;5067546;28;20037;-89
2023/03/13 11:30:22;;;;;;;4.88;4.00;;;;;;;13.81;100.00;99094.91;5070228;28;20045;-89
2023/03/13 11:33:01;;;;;;;4.88;3.25;;;;;;;13.77;100.00;99090.81;5087867;28;20108;-88
2023/03/13 11:35:55;;;;;;;4.53;2.78;;;;;;;13.62;100.00;99068.09;5068399;28;20036;-89
2023/03/13 11:38:35;;;;;;;3.15;2.45;;;;;;;13.70;100.00;99074.47;5060614;28;20037;-91
2023/03/13 11:41:51;;;;;;;5.15;2.60;;;;;;;13.82;100.00;99079.78;5081795;28;20033;-89
2023/03/13 11:45:07;;;;;;;6.70;2.50;;;;;;;13.67;100.00;99065.91;5059326;28;20051;-90
2023/03/13 11:48:03;;;;;;;3.55;2.50;;;;;;;13.78;100.00;99057.91;5082340;28;20033;-90
2023/03/13 11:50:59;;;;;;;4.80;2.50;;;;;;;13.76;100.00;99038.56;5092238;28;20062;-92
2023/03/13 11:54:09;;;;;;;7.30;2.90;;;;;;;13.78;100.00;99049.94;5096121;28;20100;-91
2023/03/13 11:56:57;;;;;;;6.57;2.92;;;;;;;13.73;100.00;99044.13;5073103;28;20033;-91
2023/03/13 12:00:02;;;;;;;4.75;2.30;;;;;;;13.71;100.00;99051.38;5059387;28;20026;-91
2023/03/13 12:02:47;;;;;;;5.60;2.30;;;;;;;13.81;100.00;99038.19;5052070;28;20033;-90
2023/03/13 12:05:27;;;;;;;3.97;2.78;;;;;;;13.66;100.00;98990.59;5019756;28;20120;-90
2023/03/13 12:08:16;;;;;;;6.63;2.50;;;;;;;14.13;100.00;99014.25;5064919;28;20073;-91
2023/03/13 12:11:22;;;;;;;2.53;2.30;;;;;;;14.23;100.00;99013.34;5041697;28;20105;-90